SXS6NT EGBB-LTBJ
Flight info
| Callsign | SXS6NT |
|---|---|
| Flight time | N/A |
| Altitude | 37000 |
| Route | UNGAP P155 SIVDA P137 REDFA DCT TACHA DCT NOLRU DCT TIVUN DCT ESAMA DCT OSBIT DCT TENLO DCT LAMSI/N0454F370 DCT BARUG DCT SASAL DCT SOGMO DCT BABIT DCT KOTUS DCT OBAGI DCT NISVA DCT NIKTI DCT LMO UN128 RIKSO |
| Aircraft | B38M/M-SADE2E3GIJ4J7RW/LB1D1 |
Departure
| Time | N/A |
|---|---|
| Airport | Birmingham Airport (EGBB) |
Arrival
| Time | 2026-05-05 12:48 |
|---|---|
| Airport | Adnan Menderes International Airport (LTBJ) |
| Time | Latitude | Longitude | Altitude | Speed | Heading |
|---|---|---|---|---|---|
| 2026-05-05 12:06 | 41.74918 | 23.62117 | 37119 ft | 491 kts | 144° |
| 2026-05-05 12:06 | 41.71751 | 23.65009 | 37119 ft | 491 kts | 145° |
| 2026-05-05 12:07 | 41.65392 | 23.70803 | 37116 ft | 492 kts | 145° |
| 2026-05-05 12:07 | 41.59107 | 23.76519 | 37110 ft | 491 kts | 146° |
| 2026-05-05 12:08 | 41.52856 | 23.82179 | 37101 ft | 492 kts | 145° |
| 2026-05-05 12:08 | 41.46577 | 23.87866 | 37096 ft | 492 kts | 145° |
| 2026-05-05 12:09 | 41.40186 | 23.93650 | 37074 ft | 493 kts | 146° |
| 2026-05-05 12:09 | 41.33764 | 23.99437 | 37061 ft | 493 kts | 145° |
| 2026-05-05 12:10 | 41.27375 | 24.05167 | 37066 ft | 493 kts | 146° |
| 2026-05-05 12:10 | 41.21138 | 24.10749 | 37057 ft | 493 kts | 146° |
| 2026-05-05 12:11 | 41.14681 | 24.16519 | 37049 ft | 493 kts | 145° |
| 2026-05-05 12:11 | 41.08192 | 24.22314 | 37044 ft | 493 kts | 145° |
| 2026-05-05 12:12 | 41.01828 | 24.27979 | 37037 ft | 494 kts | 145° |
| 2026-05-05 12:12 | 40.95637 | 24.33476 | 37027 ft | 494 kts | 145° |
| 2026-05-05 12:13 | 40.89521 | 24.38893 | 37034 ft | 494 kts | 146° |
| 2026-05-05 12:13 | 40.83413 | 24.44289 | 37042 ft | 494 kts | 145° |
| 2026-05-05 12:14 | 40.77373 | 24.49618 | 37044 ft | 494 kts | 146° |
| 2026-05-05 12:14 | 40.71395 | 24.54878 | 37047 ft | 493 kts | 145° |
| 2026-05-05 12:15 | 40.65483 | 24.60067 | 37056 ft | 495 kts | 145° |
| 2026-05-05 12:15 | 40.59632 | 24.65194 | 37056 ft | 494 kts | 146° |
| 2026-05-05 12:16 | 40.53685 | 24.70391 | 37056 ft | 495 kts | 146° |
| 2026-05-05 12:16 | 40.47935 | 24.75406 | 37056 ft | 496 kts | 146° |
| 2026-05-05 12:17 | 40.42204 | 24.80391 | 37059 ft | 495 kts | 146° |
| 2026-05-05 12:17 | 40.36339 | 24.85483 | 37053 ft | 496 kts | 146° |
| 2026-05-05 12:18 | 40.30505 | 24.90540 | 37048 ft | 496 kts | 146° |
| 2026-05-05 12:18 | 40.24662 | 24.95589 | 37046 ft | 496 kts | 146° |
| 2026-05-05 12:19 | 40.18745 | 25.00695 | 37049 ft | 497 kts | 146° |
| 2026-05-05 12:19 | 40.12923 | 25.05713 | 37049 ft | 496 kts | 146° |
| 2026-05-05 12:20 | 40.07052 | 25.10757 | 37056 ft | 497 kts | 146° |
| 2026-05-05 12:20 | 40.01133 | 25.15832 | 37054 ft | 495 kts | 146° |
| 2026-05-05 12:21 | 39.95319 | 25.20811 | 36493 ft | 491 kts | 146° |
| 2026-05-05 12:21 | 39.92451 | 25.23340 | 35604 ft | 498 kts | 143° |
| 2026-05-05 12:21 | 39.89660 | 25.26093 | 34857 ft | 502 kts | 140° |
| 2026-05-05 12:22 | 39.86970 | 25.28973 | 34169 ft | 502 kts | 138° |
| 2026-05-05 12:22 | 39.84312 | 25.31945 | 33374 ft | 503 kts | 137° |
| 2026-05-05 12:22 | 39.81707 | 25.34921 | 32893 ft | 497 kts | 136° |
| 2026-05-05 12:22 | 39.79104 | 25.37906 | 32623 ft | 497 kts | 136° |
| 2026-05-05 12:23 | 39.76474 | 25.40915 | 32277 ft | 505 kts | 137° |
| 2026-05-05 12:23 | 39.73838 | 25.43914 | 31806 ft | 507 kts | 137° |
| 2026-05-05 12:23 | 39.71175 | 25.46923 | 31332 ft | 505 kts | 137° |
| 2026-05-05 12:23 | 39.68347 | 25.50101 | 30833 ft | 504 kts | 137° |
| 2026-05-05 12:24 | 39.65704 | 25.53056 | 30365 ft | 506 kts | 137° |
| 2026-05-05 12:24 | 39.62988 | 25.56084 | 29892 ft | 507 kts | 137° |
| 2026-05-05 12:24 | 39.60310 | 25.59061 | 29424 ft | 507 kts | 137° |
| 2026-05-05 12:24 | 39.57584 | 25.62086 | 28948 ft | 506 kts | 137° |
| 2026-05-05 12:25 | 39.54850 | 25.65116 | 28467 ft | 507 kts | 138° |
| 2026-05-05 12:25 | 39.52109 | 25.68150 | 27993 ft | 507 kts | 138° |
| 2026-05-05 12:25 | 39.49377 | 25.71170 | 27517 ft | 506 kts | 138° |
| 2026-05-05 12:25 | 39.46681 | 25.74150 | 27046 ft | 507 kts | 138° |
| 2026-05-05 12:26 | 39.43995 | 25.77115 | 26573 ft | 507 kts | 138° |
| 2026-05-05 12:26 | 39.41315 | 25.80072 | 26109 ft | 507 kts | 138° |
| 2026-05-05 12:26 | 39.38604 | 25.83061 | 25626 ft | 507 kts | 138° |
| 2026-05-05 12:26 | 39.35679 | 25.86280 | 25120 ft | 506 kts | 138° |
| 2026-05-05 12:27 | 39.32847 | 25.89393 | 24621 ft | 500 kts | 138° |
| 2026-05-05 12:27 | 39.30128 | 25.92380 | 24141 ft | 496 kts | 138° |
| 2026-05-05 12:27 | 39.27392 | 25.95382 | 23652 ft | 492 kts | 138° |
| 2026-05-05 12:27 | 39.24755 | 25.98274 | 23181 ft | 489 kts | 138° |
| 2026-05-05 12:28 | 39.22126 | 26.01152 | 22709 ft | 485 kts | 139° |
| 2026-05-05 12:28 | 39.19529 | 26.03991 | 22245 ft | 482 kts | 139° |
| 2026-05-05 12:28 | 39.16981 | 26.06775 | 21775 ft | 478 kts | 139° |
| 2026-05-05 12:28 | 39.14455 | 26.09532 | 21316 ft | 475 kts | 138° |
| 2026-05-05 12:29 | 39.11932 | 26.12284 | 20853 ft | 471 kts | 138° |
| 2026-05-05 12:29 | 39.09405 | 26.15036 | 20383 ft | 468 kts | 138° |
| 2026-05-05 12:29 | 39.06930 | 26.17729 | 19924 ft | 464 kts | 138° |
| 2026-05-05 12:29 | 39.04499 | 26.20372 | 19470 ft | 461 kts | 138° |
| 2026-05-05 12:30 | 39.02055 | 26.23027 | 18987 ft | 458 kts | 138° |
| 2026-05-05 12:30 | 38.99639 | 26.25650 | 18535 ft | 455 kts | 138° |
| 2026-05-05 12:30 | 38.97225 | 26.28270 | 18075 ft | 451 kts | 138° |
| 2026-05-05 12:30 | 38.94831 | 26.30867 | 17639 ft | 448 kts | 138° |
| 2026-05-05 12:31 | 38.92456 | 26.33439 | 17270 ft | 446 kts | 137° |
| 2026-05-05 12:31 | 38.90092 | 26.35999 | 16870 ft | 444 kts | 137° |
| 2026-05-05 12:31 | 38.87742 | 26.38539 | 16511 ft | 442 kts | 137° |
| 2026-05-05 12:31 | 38.85416 | 26.41052 | 16236 ft | 440 kts | 137° |
| 2026-05-05 12:32 | 38.83051 | 26.43589 | 15999 ft | 440 kts | 139° |
| 2026-05-05 12:32 | 38.80639 | 26.45953 | 15742 ft | 440 kts | 142° |
| 2026-05-05 12:32 | 38.78149 | 26.48186 | 15481 ft | 438 kts | 143° |
| 2026-05-05 12:32 | 38.75618 | 26.50360 | 15224 ft | 434 kts | 144° |
| 2026-05-05 12:33 | 38.73090 | 26.52505 | 14949 ft | 430 kts | 144° |
| 2026-05-05 12:33 | 38.70633 | 26.54593 | 14648 ft | 412 kts | 144° |
| 2026-05-05 12:33 | 38.68306 | 26.56584 | 14278 ft | 397 kts | 143° |
| 2026-05-05 12:33 | 38.66078 | 26.58505 | 13857 ft | 380 kts | 143° |
| 2026-05-05 12:34 | 38.63916 | 26.60381 | 13466 ft | 364 kts | 142° |
| 2026-05-05 12:34 | 38.61877 | 26.62160 | 13135 ft | 349 kts | 142° |
| 2026-05-05 12:34 | 38.59921 | 26.63872 | 12881 ft | 334 kts | 142° |
| 2026-05-05 12:34 | 38.58026 | 26.65531 | 12673 ft | 320 kts | 142° |
| 2026-05-05 12:35 | 38.56206 | 26.67126 | 12353 ft | 311 kts | 142° |
| 2026-05-05 12:35 | 38.54441 | 26.68677 | 11825 ft | 310 kts | 142° |
| 2026-05-05 12:35 | 38.52658 | 26.70240 | 11387 ft | 305 kts | 142° |
| 2026-05-05 12:35 | 38.50880 | 26.71796 | 11099 ft | 303 kts | 142° |
| 2026-05-05 12:36 | 38.48938 | 26.73494 | 10820 ft | 304 kts | 142° |
| 2026-05-05 12:36 | 38.47184 | 26.75024 | 10573 ft | 302 kts | 142° |
| 2026-05-05 12:36 | 38.45423 | 26.76559 | 10320 ft | 301 kts | 142° |
| 2026-05-05 12:36 | 38.43700 | 26.78059 | 10074 ft | 299 kts | 142° |
| 2026-05-05 12:37 | 38.41972 | 26.79563 | 9842 ft | 299 kts | 142° |
| 2026-05-05 12:37 | 38.40266 | 26.81047 | 9590 ft | 297 kts | 142° |
| 2026-05-05 12:37 | 38.38452 | 26.82623 | 9318 ft | 294 kts | 142° |
| 2026-05-05 12:37 | 38.36601 | 26.84232 | 9029 ft | 288 kts | 142° |
| 2026-05-05 12:38 | 38.34752 | 26.85837 | 8749 ft | 283 kts | 142° |
| 2026-05-05 12:38 | 38.32922 | 26.87424 | 8506 ft | 279 kts | 142° |
| 2026-05-05 12:38 | 38.31089 | 26.89014 | 8251 ft | 277 kts | 142° |
| 2026-05-05 12:38 | 38.29298 | 26.90569 | 7989 ft | 276 kts | 142° |
| 2026-05-05 12:39 | 38.27534 | 26.92099 | 7718 ft | 274 kts | 142° |
| 2026-05-05 12:39 | 38.25719 | 26.93675 | 7484 ft | 272 kts | 142° |
| 2026-05-05 12:39 | 38.23998 | 26.95164 | 7241 ft | 271 kts | 142° |
| 2026-05-05 12:39 | 38.22217 | 26.96700 | 6975 ft | 268 kts | 143° |
| 2026-05-05 12:40 | 38.20581 | 26.98113 | 6732 ft | 263 kts | 142° |
| 2026-05-05 12:40 | 38.18973 | 26.99505 | 6528 ft | 257 kts | 142° |
| 2026-05-05 12:40 | 38.17336 | 27.00927 | 6363 ft | 255 kts | 142° |
| 2026-05-05 12:40 | 38.15654 | 27.02391 | 6191 ft | 255 kts | 142° |
| 2026-05-05 12:41 | 38.13998 | 27.03827 | 6022 ft | 255 kts | 143° |
| 2026-05-05 12:41 | 38.12367 | 27.05232 | 5856 ft | 256 kts | 142° |
| 2026-05-05 12:41 | 38.10735 | 27.06640 | 5693 ft | 255 kts | 143° |
| 2026-05-05 12:41 | 38.09207 | 27.07958 | 5532 ft | 248 kts | 143° |
| 2026-05-05 12:42 | 38.07657 | 27.09282 | 5368 ft | 240 kts | 143° |
| 2026-05-05 12:42 | 38.06207 | 27.10519 | 5207 ft | 233 kts | 141° |
| 2026-05-05 12:42 | 38.05001 | 27.11876 | 4995 ft | 226 kts | 121° |
| 2026-05-05 12:42 | 38.04515 | 27.13830 | 4754 ft | 207 kts | 77° |
| 2026-05-05 12:43 | 38.05297 | 27.15468 | 4533 ft | 193 kts | 27° |
| 2026-05-05 12:43 | 38.06652 | 27.16201 | 4324 ft | 192 kts | 26° |
| 2026-05-05 12:43 | 38.07857 | 27.17144 | 4119 ft | 192 kts | 31° |
| 2026-05-05 12:43 | 38.09089 | 27.18161 | 3923 ft | 191 kts | 30° |
| 2026-05-05 12:44 | 38.10307 | 27.19148 | 3823 ft | 182 kts | 30° |
| 2026-05-05 12:44 | 38.11438 | 27.20061 | 3566 ft | 178 kts | 30° |
| 2026-05-05 12:44 | 38.12696 | 27.20594 | 3384 ft | 168 kts | 354° |
| 2026-05-05 12:44 | 38.13997 | 27.20215 | 3140 ft | 170 kts | 347° |
| 2026-05-05 12:45 | 38.15284 | 27.19857 | 2879 ft | 167 kts | 348° |
| 2026-05-05 12:45 | 38.16554 | 27.19494 | 2631 ft | 167 kts | 346° |
| 2026-05-05 12:45 | 38.17792 | 27.19114 | 2381 ft | 167 kts | 348° |
| 2026-05-05 12:45 | 38.18982 | 27.18767 | 2156 ft | 157 kts | 349° |
| 2026-05-05 12:46 | 38.20118 | 27.18434 | 1929 ft | 156 kts | 346° |
| 2026-05-05 12:46 | 38.21225 | 27.18071 | 1718 ft | 151 kts | 347° |
| 2026-05-05 12:46 | 38.22314 | 27.17781 | 1489 ft | 146 kts | 347° |
| 2026-05-05 12:46 | 38.23424 | 27.17402 | 1281 ft | 147 kts | 349° |
| 2026-05-05 12:47 | 38.24471 | 27.17187 | 1077 ft | 147 kts | 350° |
| 2026-05-05 12:47 | 38.25470 | 27.16856 | 874 ft | 146 kts | 342° |
| 2026-05-05 12:47 | 38.26476 | 27.16507 | 735 ft | 148 kts | 348° |
| 2026-05-05 12:47 | 38.27475 | 27.16224 | 577 ft | 142 kts | 346° |
| 2026-05-05 12:48 | 38.28476 | 27.15938 | 408 ft | 128 kts | 344° |
| 2026-05-05 12:48 | 38.29110 | 27.15738 | 413 ft | 55 kts | 342° |
| 2026-05-05 12:48 | 38.29365 | 27.15659 | 415 ft | 24 kts | 345° |
| 2026-05-05 12:48 | 38.29414 | 27.15563 | 414 ft | 13 kts | 258° |
| 2026-05-05 12:49 | 38.29391 | 27.15437 | 411 ft | 14 kts | 257° |
| 2026-05-05 12:49 | 38.29369 | 27.15311 | 411 ft | 13 kts | 255° |
| 2026-05-05 12:49 | 38.29345 | 27.15188 | 408 ft | 14 kts | 256° |
| 2026-05-05 12:49 | 38.29371 | 27.15124 | 408 ft | 7 kts | 338° |
| 2026-05-05 12:50 | 38.29419 | 27.15106 | 408 ft | 6 kts | 344° |
| 2026-05-05 12:50 | 38.29456 | 27.15099 | 408 ft | 3 kts | 22° |
| 2026-05-05 12:50 | 38.29469 | 27.15132 | 408 ft | 3 kts | 77° |
| 2026-05-05 12:50 | 38.29474 | 27.15164 | 408 ft | 3 kts | 77° |
| 2026-05-05 12:51 | 38.29477 | 27.15180 | 408 ft | 0 kts | 76° |